Northport, Michigan
Current Conditions -  °F | °C
As of 3:15 AM on Thursday 27 Nov 2014 (Local Time) from KCVX Reporting Station
Light Snow Light Snow  
Wind Chill: 20°   Ceiling: 2300
Heat Index: 29°   Visibility: 10mi
Dew Point: 23°   Wind: 9mph
Humidity: 79%   Direction: 330°NNW
Pressure: 30.16"   Gusts: NA
Location:  45.13°N, 85.62°W
Report Text: KCVX 270815Z AUTO 33008KT 10SM -SN SCT011 BKN023 OVC029 M02/M05 A3016 RMK AO2 T10181050
Loading
Personal Weather Stations






























Interactive Weather Map New forecast layout! Learn more

10-Day Weather Forecast

Advertisements
Track Severe Weather on mobile